createdAt,value
2019-05-16T00:01:52.420Z,1.07
2019-05-16T00:04:19.189Z,0.70
2019-05-16T00:06:47.988Z,1.10
2019-05-16T00:09:14.342Z,0.90
2019-05-16T00:11:41.130Z,1.02
2019-05-16T00:14:08.426Z,1.20
2019-05-16T00:16:37.851Z,1.10
2019-05-16T00:19:03.984Z,1.17
2019-05-16T00:21:30.605Z,1.20
2019-05-16T00:23:58.645Z,1.10
2019-05-16T00:26:25.383Z,1.10
2019-05-16T00:28:52.052Z,1.10
2019-05-16T00:31:18.637Z,0.90
2019-05-16T00:33:45.327Z,0.80
2019-05-16T00:36:12.134Z,0.80
2019-05-16T00:38:38.697Z,0.88
2019-05-16T00:41:05.479Z,1.00
2019-05-16T00:43:32.186Z,0.90
2019-05-16T00:45:59.175Z,0.93
2019-05-16T00:48:28.843Z,0.80
2019-05-16T00:50:58.279Z,0.77
2019-05-16T00:53:24.507Z,0.80
2019-05-16T00:55:52.569Z,0.90
2019-05-16T00:58:20.092Z,0.88
2019-05-16T01:00:49.843Z,0.80
2019-05-16T01:03:19.879Z,0.80
2019-05-16T01:05:48.104Z,0.93
2019-05-16T01:08:15.114Z,0.80
2019-05-16T01:13:18.563Z,0.82
2019-05-16T01:15:45.580Z,1.00
2019-05-16T01:18:12.296Z,0.95
2019-05-16T01:20:40.732Z,0.82
2019-05-16T01:23:08.865Z,0.78
2019-05-16T01:25:35.748Z,0.90
2019-05-16T01:28:02.431Z,0.90
2019-05-16T01:30:29.180Z,0.90
2019-05-16T01:32:58.135Z,1.00
2019-05-16T01:35:24.518Z,0.90
2019-05-16T01:37:51.202Z,0.80
2019-05-16T01:40:18.888Z,0.78
2019-05-16T01:42:45.867Z,0.90
2019-05-16T01:45:13.189Z,1.00
2019-05-16T01:47:39.947Z,0.82
2019-05-16T01:50:08.679Z,0.90
2019-05-16T01:52:38.069Z,0.90
2019-05-16T01:55:04.692Z,0.75
2019-05-16T01:57:31.284Z,1.00
2019-05-16T01:59:58.952Z,1.70
2019-05-16T02:02:25.946Z,0.90
2019-05-16T02:04:52.638Z,1.07
2019-05-16T02:07:19.413Z,0.80
2019-05-16T02:09:47.647Z,0.98
2019-05-16T02:12:14.511Z,0.90
2019-05-16T02:14:41.194Z,0.72
2019-05-16T02:17:08.686Z,0.93
2019-05-16T02:19:38.486Z,1.10
2019-05-16T02:22:05.208Z,1.17
2019-05-16T02:24:32.043Z,0.98
2019-05-16T02:26:59.145Z,1.10
2019-05-16T02:29:25.933Z,0.95
2019-05-16T02:31:52.687Z,1.20
2019-05-16T02:34:21.818Z,1.00
2019-05-16T02:37:09.568Z,0.90
2019-05-16T02:39:16.622Z,1.30
2019-05-16T02:41:46.264Z,1.72
2019-05-16T02:44:12.318Z,1.05
2019-05-16T02:46:41.850Z,1.30
2019-05-16T02:49:11.333Z,1.10
2019-05-16T02:51:36.720Z,1.55
2019-05-16T02:54:03.939Z,1.40
2019-05-16T02:56:31.779Z,1.20
2019-05-16T02:59:01.640Z,1.00
2019-05-16T03:01:27.389Z,1.17
2019-05-16T03:03:54.224Z,1.00
2019-05-16T03:06:21.897Z,1.22
2019-05-16T03:08:50.785Z,1.22
2019-05-16T03:11:20.836Z,1.35
2019-05-16T03:13:47.374Z,1.12
2019-05-16T03:16:15.335Z,1.32
2019-05-16T03:18:42.407Z,1.22
2019-05-16T03:21:11.333Z,1.17
2019-05-16T03:23:41.693Z,1.15
2019-05-16T03:26:06.963Z,1.32
2019-05-16T03:28:33.653Z,1.42
2019-05-16T03:31:05.397Z,1.20
2019-05-16T03:33:38.948Z,1.27
2019-05-16T03:35:57.585Z,1.50
2019-05-16T03:38:24.338Z,1.67
2019-05-16T03:40:52.367Z,1.20
2019-05-16T03:43:21.960Z,1.40
2019-05-16T03:45:52.223Z,1.15
2019-05-16T03:48:17.315Z,1.40
2019-05-16T03:50:44.016Z,1.27
2019-05-16T03:53:11.625Z,1.17
2019-05-16T03:55:40.703Z,1.05
2019-05-16T03:58:07.185Z,1.10
2019-05-16T04:01:02.276Z,2.15
2019-05-16T04:03:32.107Z,1.45
2019-05-16T04:05:56.751Z,1.40
2019-05-16T04:08:25.559Z,1.32
2019-05-16T04:10:52.699Z,1.60
2019-05-16T04:13:21.392Z,1.30
2019-05-16T04:15:51.780Z,1.30
2019-05-16T04:18:17.045Z,1.17
2019-05-16T04:20:43.801Z,1.22
2019-05-16T04:23:11.170Z,1.57
2019-05-16T04:25:40.986Z,1.37
2019-05-16T04:28:07.237Z,1.37
2019-05-16T04:30:33.993Z,1.22
2019-05-16T04:33:01.875Z,1.20
2019-05-16T04:35:31.526Z,1.17
2019-05-16T04:37:57.386Z,1.30
2019-05-16T04:40:24.091Z,1.20
2019-05-16T04:42:51.458Z,1.30
2019-05-16T04:45:21.115Z,1.40
2019-05-16T04:47:47.073Z,1.57
2019-05-16T04:50:15.529Z,1.30
2019-05-16T04:52:42.271Z,1.80
2019-05-16T04:55:11.800Z,1.60
2019-05-16T04:57:41.755Z,1.22
2019-05-16T05:00:10.871Z,1.22
2019-05-16T05:02:36.224Z,1.60
2019-05-16T05:05:03.085Z,1.35
2019-05-16T05:07:31.322Z,1.60
2019-05-16T05:10:00.576Z,1.32
2019-05-16T05:12:26.839Z,1.10
2019-05-16T05:14:53.546Z,1.30
2019-05-16T05:17:21.033Z,1.50
2019-05-16T05:19:50.455Z,1.57
2019-05-16T05:22:19.885Z,1.35
2019-05-16T05:24:46.568Z,1.35
2019-05-16T05:27:13.227Z,1.30
2019-05-16T05:29:40.010Z,1.60
2019-05-16T05:32:06.759Z,1.30
2019-05-16T05:34:33.417Z,1.57
2019-05-16T05:37:00.394Z,1.72
2019-05-16T05:39:27.210Z,1.40
2019-05-16T05:41:53.971Z,1.30
2019-05-16T05:44:21.284Z,1.55
2019-05-16T05:46:47.962Z,1.72
2019-05-16T05:49:14.728Z,1.40
2019-05-16T05:51:43.522Z,1.67
2019-05-16T05:54:10.831Z,1.60
2019-05-16T05:56:39.813Z,1.10
2019-05-16T05:59:11.359Z,2.08
2019-05-16T06:01:40.103Z,1.65
2019-05-16T06:04:05.854Z,1.35
2019-05-16T06:06:32.531Z,1.20
2019-05-16T06:09:00.661Z,1.30
2019-05-16T06:11:27.645Z,1.45
2019-05-16T06:13:54.421Z,2.00
2019-05-16T06:16:21.113Z,1.30
2019-05-16T06:18:50.309Z,2.42
2019-05-16T06:21:20.091Z,1.10
2019-05-16T06:23:46.094Z,1.92
2019-05-16T06:26:12.818Z,1.50
2019-05-16T06:28:41.216Z,1.20
2019-05-16T06:31:13.035Z,1.40
2019-05-16T06:33:36.620Z,2.47
2019-05-16T06:36:03.388Z,1.40
2019-05-16T06:38:31.068Z,1.40
2019-05-16T06:41:00.049Z,1.40
2019-05-16T06:43:26.487Z,1.50
2019-05-16T06:45:53.246Z,1.40
2019-05-16T06:48:21.325Z,1.35
2019-05-16T06:50:51.490Z,1.32
2019-05-16T06:53:17.182Z,1.45
2019-05-16T06:55:43.950Z,1.45
2019-05-16T06:58:10.760Z,1.22
2019-05-16T07:00:37.514Z,1.55
2019-05-16T07:03:04.302Z,1.15
2019-05-16T07:05:31.098Z,1.22
2019-05-16T07:08:20.150Z,1.50
2019-05-16T07:10:46.129Z,1.50
2019-05-16T07:13:12.934Z,1.42
2019-05-16T07:15:40.230Z,1.20
2019-05-16T07:18:10.898Z,1.40
2019-05-16T07:20:37.056Z,1.55
2019-05-16T07:23:03.923Z,1.35
2019-05-16T07:25:30.980Z,1.60
2019-05-16T07:28:17.397Z,1.57
2019-05-16T07:30:44.186Z,1.50
2019-05-16T07:33:11.017Z,1.85
2019-05-16T07:35:40.033Z,1.50
2019-05-16T07:38:06.489Z,1.30
2019-05-16T07:40:33.336Z,1.50
2019-05-16T07:43:00.172Z,1.72
2019-05-16T07:45:26.964Z,1.12
2019-05-16T07:47:53.792Z,1.40
2019-05-16T07:50:20.625Z,1.50
2019-05-16T07:52:47.324Z,1.50
2019-05-16T07:55:14.493Z,1.70
2019-05-16T07:57:41.162Z,1.20
2019-05-16T08:00:09.720Z,1.70
2019-05-16T08:02:36.572Z,2.05
2019-05-16T08:05:03.648Z,1.90
2019-05-16T08:07:33.633Z,1.62
2019-05-16T08:09:59.873Z,1.95
2019-05-16T08:12:27.458Z,1.65
2019-05-16T08:14:54.323Z,1.52
2019-05-16T08:17:21.828Z,1.82
2019-05-16T08:19:50.648Z,1.70
2019-05-16T08:22:17.257Z,1.65
2019-05-16T08:24:44.029Z,1.72
2019-05-16T08:27:12.158Z,2.00
2019-05-16T08:29:40.436Z,1.60
2019-05-16T08:32:11.193Z,1.65
2019-05-16T08:34:37.050Z,1.80
2019-05-16T08:37:03.720Z,2.37
2019-05-16T08:39:31.188Z,1.72
2019-05-16T08:42:07.052Z,2.05
2019-05-16T08:44:26.814Z,1.80
2019-05-16T08:46:57.982Z,1.72
2019-05-16T08:49:22.478Z,1.77
2019-05-16T08:51:52.889Z,2.15
2019-05-16T08:54:18.017Z,2.12
2019-05-16T08:56:44.786Z,1.90
2019-05-16T08:59:13.489Z,1.95
2019-05-16T09:01:51.566Z,1.77
2019-05-16T09:04:11.930Z,1.60
2019-05-16T09:06:42.203Z,1.98
2019-05-16T09:09:26.630Z,2.87
2019-05-16T09:11:44.135Z,2.25
2019-05-16T09:14:07.721Z,2.20
2019-05-16T09:16:33.348Z,1.65
2019-05-16T09:19:00.042Z,2.05
2019-05-16T09:21:27.566Z,1.70
2019-05-16T09:23:57.814Z,2.25
2019-05-16T09:26:24.053Z,1.75
2019-05-16T09:28:50.839Z,2.08
2019-05-16T09:31:18.450Z,2.30
2019-05-16T09:33:47.438Z,2.30
2019-05-16T09:36:17.236Z,2.25
2019-05-16T09:38:42.788Z,2.37
2019-05-16T09:41:09.554Z,2.40
2019-05-16T09:43:39.794Z,2.70
2019-05-16T09:46:07.850Z,2.30
2019-05-16T09:48:37.735Z,1.77
2019-05-16T09:51:03.557Z,2.40
2019-05-16T09:53:30.313Z,2.05
2019-05-16T09:55:57.711Z,2.22
2019-05-16T09:58:24.578Z,2.10
2019-05-16T10:00:51.356Z,1.70
2019-05-16T10:03:22.339Z,1.87
2019-05-16T10:05:46.944Z,1.95
2019-05-16T10:08:14.074Z,2.22
2019-05-16T10:10:41.096Z,2.50
2019-05-16T10:13:07.751Z,1.85
2019-05-16T10:15:34.531Z,2.52
2019-05-16T10:18:01.291Z,2.27
2019-05-16T10:20:28.083Z,2.10
2019-05-16T10:22:57.683Z,2.40
2019-05-16T10:25:23.530Z,2.17
2019-05-16T10:27:50.368Z,2.70
2019-05-16T10:30:17.757Z,2.37
2019-05-16T10:32:44.635Z,2.33
2019-05-16T10:35:11.902Z,2.10
2019-05-16T10:37:38.708Z,2.25
2019-05-16T10:40:07.307Z,2.20
2019-05-16T10:42:37.946Z,2.15
2019-05-16T10:45:08.624Z,2.50
2019-05-16T10:47:37.100Z,2.42
2019-05-16T10:50:05.152Z,2.62
2019-05-16T10:52:31.942Z,2.22
2019-05-16T10:55:02.283Z,2.20
2019-05-16T10:57:29.926Z,2.90
2019-05-16T11:00:06.498Z,2.80
2019-05-16T11:02:27.393Z,2.92
2019-05-16T11:05:02.857Z,2.70
2019-05-16T11:07:22.384Z,2.47
2019-05-16T11:09:57.883Z,2.55
2019-05-16T11:12:20.523Z,2.45
2019-05-16T11:14:47.850Z,2.27
2019-05-16T11:17:14.476Z,2.37
2019-05-16T11:19:41.618Z,2.15
2019-05-16T11:22:08.326Z,2.62
2019-05-16T11:24:37.707Z,2.83
2019-05-16T11:27:07.408Z,2.75
2019-05-16T11:29:36.482Z,2.10
2019-05-16T11:32:02.686Z,2.75
2019-05-16T11:34:31.837Z,3.40
2019-05-16T11:37:01.687Z,2.42
2019-05-16T11:39:28.444Z,2.60
2019-05-16T11:41:57.119Z,2.67
2019-05-16T11:44:28.173Z,3.02
2019-05-16T11:46:52.620Z,2.90
2019-05-16T11:49:19.388Z,3.50
2019-05-16T11:51:47.523Z,3.22
2019-05-16T11:54:14.319Z,3.10
2019-05-16T11:57:02.431Z,3.10
2019-05-16T11:59:31.380Z,3.60
2019-05-16T12:01:58.102Z,3.50
2019-05-16T12:04:24.664Z,3.50
2019-05-16T12:06:51.356Z,2.70
2019-05-16T12:09:18.160Z,3.20
2019-05-16T12:11:45.130Z,2.70
2019-05-16T12:14:11.718Z,2.62
2019-05-16T12:16:40.566Z,2.72
2019-05-16T12:19:07.276Z,3.00
2019-05-16T12:21:35.397Z,2.37
2019-05-16T12:24:03.086Z,2.80
2019-05-16T12:26:29.673Z,2.62
2019-05-16T12:28:57.285Z,3.00
2019-05-16T12:31:24.243Z,3.10
2019-05-16T12:33:50.939Z,2.52
2019-05-16T12:36:17.786Z,2.98
2019-05-16T12:38:46.770Z,2.58
2019-05-16T12:41:13.265Z,3.08
2019-05-16T12:43:49.539Z,3.02
2019-05-16T12:46:11.592Z,3.42
2019-05-16T12:48:47.428Z,3.17
2019-05-16T12:51:14.075Z,4.05
2019-05-16T12:53:43.746Z,3.45
2019-05-16T12:56:10.414Z,3.58
2019-05-16T12:58:42.176Z,3.22
2019-05-16T13:01:09.229Z,3.30
2019-05-16T13:03:37.778Z,3.72
2019-05-16T13:06:04.936Z,3.55
2019-05-16T13:08:34.052Z,3.20
2019-05-16T13:11:01.059Z,3.55
2019-05-16T13:13:28.020Z,4.05
2019-05-16T13:15:54.859Z,3.55
2019-05-16T13:18:21.576Z,3.45
2019-05-16T13:20:48.378Z,2.85
2019-05-16T13:23:18.072Z,3.50
2019-05-16T13:25:43.859Z,2.60
2019-05-16T13:28:12.752Z,4.25
2019-05-16T13:30:39.739Z,3.17
2019-05-16T13:33:07.310Z,3.30
2019-05-16T13:35:36.751Z,3.65
2019-05-16T13:38:03.043Z,3.98
2019-05-16T13:40:29.757Z,5.25
2019-05-16T13:42:57.380Z,6.15
2019-05-16T13:45:26.990Z,4.90
2019-05-16T13:47:52.686Z,5.20
2019-05-16T13:50:19.564Z,4.80
2019-05-16T13:52:48.092Z,3.92
2019-05-16T13:55:16.771Z,3.40
2019-05-16T13:57:43.740Z,5.33
2019-05-16T14:00:12.626Z,4.47
2019-05-16T14:02:41.771Z,4.87
2019-05-16T14:05:29.866Z,4.20
2019-05-16T14:07:57.250Z,8.43
2019-05-16T14:10:23.939Z,10.40
2019-05-16T14:12:50.604Z,9.65
2019-05-16T14:15:18.255Z,5.47
2019-05-16T14:17:45.087Z,4.37
2019-05-16T14:20:14.934Z,5.60
2019-05-16T14:22:41.399Z,6.28
2019-05-16T14:25:08.495Z,4.30
2019-05-16T14:27:37.851Z,3.80
2019-05-16T14:30:07.428Z,4.58
2019-05-16T14:32:33.502Z,4.60
2019-05-16T14:35:00.212Z,3.90
2019-05-16T14:37:27.105Z,4.70
2019-05-16T14:39:57.826Z,4.50
2019-05-16T14:42:23.805Z,5.08
2019-05-16T14:45:06.715Z,5.00
2019-05-16T14:47:19.067Z,4.10
2019-05-16T14:49:48.672Z,5.50
2019-05-16T14:52:14.409Z,4.92
2019-05-16T14:54:41.075Z,6.35
2019-05-16T14:57:07.880Z,11.33
2019-05-16T14:59:36.493Z,10.95
2019-05-16T15:02:07.102Z,10.30
2019-05-16T15:07:00.548Z,6.58
2019-05-16T15:09:28.599Z,6.42
2019-05-16T15:11:58.142Z,6.28
2019-05-16T15:14:23.981Z,5.97
2019-05-16T15:16:51.988Z,6.00
2019-05-16T15:19:18.773Z,5.97
2019-05-16T15:21:47.635Z,5.08
2019-05-16T15:24:14.010Z,6.25
2019-05-16T15:26:40.844Z,5.72
2019-05-16T15:29:08.311Z,5.42
2019-05-16T15:31:36.346Z,5.70
2019-05-16T15:34:03.711Z,5.55
2019-05-16T15:36:30.393Z,6.45
2019-05-16T15:38:59.563Z,5.60
2019-05-16T15:41:27.296Z,6.10
2019-05-16T15:43:59.004Z,4.95
2019-05-16T15:46:23.352Z,5.85
2019-05-16T15:48:50.323Z,5.00
2019-05-16T15:51:38.536Z,6.17
2019-05-16T15:54:06.721Z,4.72
2019-05-16T15:56:34.077Z,4.03
2019-05-16T15:59:02.373Z,4.00
2019-05-16T16:01:29.026Z,4.75
2019-05-16T16:03:58.589Z,3.58
2019-05-16T16:06:27.447Z,3.98
2019-05-16T16:08:54.100Z,6.78
2019-05-16T16:11:22.295Z,3.72
2019-05-16T16:13:48.990Z,4.87
2019-05-16T16:16:17.403Z,3.92
2019-05-16T16:18:46.701Z,4.10
2019-05-16T16:21:12.937Z,4.35
2019-05-16T16:23:39.723Z,5.47
2019-05-16T16:26:07.567Z,4.67
2019-05-16T16:28:37.905Z,4.22
2019-05-16T16:31:03.881Z,4.10
2019-05-16T16:33:30.568Z,4.67
2019-05-16T16:35:57.416Z,4.90
2019-05-16T16:38:24.133Z,3.58
2019-05-16T16:40:50.791Z,3.27
2019-05-16T16:43:17.449Z,3.20
2019-05-16T16:45:47.732Z,3.33
2019-05-16T16:48:13.210Z,3.10
2019-05-16T16:50:40.847Z,3.15
2019-05-16T16:53:07.627Z,10.32
2019-05-16T16:55:36.823Z,3.92
2019-05-16T16:58:09.518Z,2.90
2019-05-16T17:00:38.426Z,3.42
2019-05-16T17:03:10.411Z,2.85
2019-05-16T17:05:36.996Z,3.42
2019-05-16T17:08:03.738Z,3.70
2019-05-16T17:10:30.502Z,5.90
2019-05-16T17:12:57.771Z,4.00
2019-05-16T17:15:27.026Z,3.95
2019-05-16T17:17:53.442Z,4.50
2019-05-16T17:20:21.114Z,5.30
2019-05-16T17:22:47.886Z,5.40
2019-05-16T17:25:14.855Z,4.50
2019-05-16T17:27:41.646Z,4.40
2019-05-16T17:30:13.857Z,4.60
2019-05-16T17:32:43.430Z,5.15
2019-05-16T17:35:10.184Z,4.47
2019-05-16T17:37:37.489Z,4.50
2019-05-16T17:40:05.257Z,4.60
2019-05-16T17:42:34.493Z,6.30
2019-05-16T17:45:00.595Z,6.05
2019-05-16T17:47:27.296Z,5.65
2019-05-16T17:49:54.065Z,6.08
2019-05-16T17:52:20.644Z,5.53
2019-05-16T17:54:47.424Z,5.22
2019-05-16T17:57:14.180Z,5.90
2019-05-16T17:59:40.852Z,6.03
2019-05-16T18:02:07.536Z,5.90
2019-05-16T18:04:34.217Z,7.10
2019-05-16T18:07:00.879Z,7.15
2019-05-16T18:09:27.884Z,8.18
2019-05-16T18:11:54.650Z,8.05
2019-05-16T18:14:21.434Z,8.58
2019-05-16T18:16:57.876Z,7.85
2019-05-16T18:19:17.348Z,7.33
2019-05-16T18:21:46.443Z,8.53
2019-05-16T18:24:13.285Z,8.93
2019-05-16T18:26:40.071Z,11.33
2019-05-16T18:29:07.546Z,10.15
2019-05-16T18:31:34.369Z,8.53
2019-05-16T18:34:01.084Z,10.88
2019-05-16T18:36:27.708Z,14.73
2019-05-16T18:38:54.287Z,13.72
2019-05-16T18:41:21.945Z,9.58
2019-05-16T18:43:48.764Z,10.58
2019-05-16T18:46:16.352Z,11.85
2019-05-16T18:48:43.201Z,12.13
2019-05-16T18:51:10.016Z,12.05
2019-05-16T18:53:39.249Z,11.18
2019-05-16T18:56:07.759Z,11.45
2019-05-16T18:58:37.025Z,11.83
2019-05-16T19:01:03.337Z,11.43
2019-05-16T19:03:30.378Z,10.80
2019-05-16T19:05:57.398Z,12.85
2019-05-16T19:08:26.877Z,11.53
2019-05-16T19:10:52.950Z,10.95
2019-05-16T19:13:19.628Z,12.82
2019-05-16T19:15:49.239Z,11.60
2019-05-16T19:18:17.070Z,11.88
2019-05-16T19:20:46.069Z,12.18
2019-05-16T19:23:12.550Z,13.18
2019-05-16T19:25:39.328Z,14.50
2019-05-16T19:28:07.030Z,13.15
2019-05-16T19:30:37.542Z,14.05
2019-05-16T19:33:06.774Z,14.13
2019-05-16T19:35:33.403Z,16.45
2019-05-16T19:38:01.425Z,13.65
2019-05-16T19:40:31.172Z,15.20
2019-05-16T19:42:57.741Z,14.27
2019-05-16T19:45:26.449Z,15.45
2019-05-16T19:47:53.437Z,16.55
2019-05-16T19:50:22.364Z,17.55
2019-05-16T19:52:48.926Z,15.68
2019-05-16T19:55:17.832Z,17.30
2019-05-16T19:57:46.522Z,16.93
2019-05-16T20:00:13.659Z,17.82
2019-05-16T20:02:40.432Z,18.52
2019-05-16T20:05:08.341Z,18.42
2019-05-16T20:07:37.241Z,18.02
2019-05-16T20:10:06.993Z,17.23
2019-05-16T20:12:33.621Z,18.45
2019-05-16T20:15:08.188Z,18.15
2019-05-16T20:17:29.224Z,18.98
2019-05-16T20:19:56.383Z,18.87
2019-05-16T20:22:23.287Z,17.67
2019-05-16T20:24:50.042Z,18.70
2019-05-16T20:27:19.474Z,19.35
2019-05-16T20:29:47.461Z,18.12
2019-05-16T20:32:16.709Z,20.53
2019-05-16T20:34:42.939Z,21.70
2019-05-16T20:37:09.749Z,22.90
2019-05-16T20:39:37.138Z,22.22
2019-05-16T20:42:04.300Z,23.20
2019-05-16T20:44:31.091Z,22.13
2019-05-16T20:46:57.988Z,21.95
2019-05-16T20:49:26.990Z,22.67
2019-05-16T20:51:53.460Z,22.67
2019-05-16T20:54:20.207Z,22.25
2019-05-16T20:56:49.467Z,22.40
2019-05-16T20:59:17.439Z,24.67
2019-05-16T21:01:46.429Z,21.48
2019-05-16T21:04:13.358Z,20.82
2019-05-16T21:06:40.138Z,22.32
2019-05-16T21:09:06.911Z,20.23
2019-05-16T21:11:33.738Z,19.40
2019-05-16T21:14:00.762Z,21.65
2019-05-16T21:16:27.464Z,19.75
2019-05-16T21:18:57.376Z,18.60
2019-05-16T21:21:23.710Z,21.25
2019-05-16T21:23:50.371Z,18.67
2019-05-16T21:26:17.062Z,18.57
2019-05-16T21:28:43.623Z,19.52
2019-05-16T21:31:10.282Z,17.80
2019-05-16T21:33:37.356Z,19.40
2019-05-16T21:36:04.129Z,20.55
2019-05-16T21:38:30.945Z,18.73
2019-05-16T21:40:58.383Z,20.70
2019-05-16T21:43:27.143Z,20.43
2019-05-16T21:45:53.931Z,21.02
2019-05-16T21:48:20.708Z,22.07
2019-05-16T21:50:47.488Z,22.85
2019-05-16T21:53:14.282Z,22.05
2019-05-16T21:55:41.003Z,22.32
2019-05-16T21:58:08.007Z,21.97
2019-05-16T22:00:42.403Z,24.27
2019-05-16T22:03:09.291Z,22.90
2019-05-16T22:05:37.576Z,22.42
2019-05-16T22:08:04.663Z,21.77
2019-05-16T22:10:31.691Z,21.85
2019-05-16T22:13:07.762Z,21.65
2019-05-16T22:15:36.606Z,22.65
2019-05-16T22:18:03.662Z,22.93
2019-05-16T22:20:30.432Z,21.40
2019-05-16T22:22:58.431Z,23.35
2019-05-16T22:25:27.270Z,22.75
2019-05-16T22:27:54.179Z,22.27
2019-05-16T22:30:20.954Z,22.02
2019-05-16T22:32:47.867Z,23.62
2019-05-16T22:35:37.539Z,21.97
2019-05-16T22:38:06.535Z,22.80
2019-05-16T22:40:33.464Z,21.87
2019-05-16T22:43:00.121Z,21.05
2019-05-16T22:45:27.297Z,21.37
2019-05-16T22:47:53.978Z,22.25
2019-05-16T22:50:20.732Z,21.77
2019-05-16T22:52:47.514Z,22.70
2019-05-16T22:55:16.837Z,22.73
2019-05-16T22:57:43.399Z,21.60
2019-05-16T23:00:13.522Z,19.82
2019-05-16T23:02:40.234Z,21.87
2019-05-16T23:05:07.473Z,22.17
2019-05-16T23:07:36.770Z,20.82
2019-05-16T23:10:04.198Z,19.98
2019-05-16T23:12:30.868Z,20.27
2019-05-16T23:14:57.547Z,20.32
2019-05-16T23:17:26.578Z,19.67
2019-05-16T23:19:52.690Z,20.45
2019-05-16T23:22:19.815Z,20.65
2019-05-16T23:24:46.520Z,19.23
2019-05-16T23:27:13.272Z,18.67
2019-05-16T23:29:39.963Z,20.10
2019-05-16T23:32:07.449Z,21.05
2019-05-16T23:34:37.331Z,19.57
2019-05-16T23:37:06.326Z,21.70
2019-05-16T23:39:32.824Z,22.62
2019-05-16T23:41:59.503Z,22.50
2019-05-16T23:44:26.227Z,23.73
2019-05-16T23:46:53.021Z,23.12
2019-05-16T23:49:19.605Z,24.57
2019-05-16T23:51:47.297Z,23.32
2019-05-16T23:54:14.286Z,23.00
2019-05-16T23:56:41.067Z,22.13
2019-05-16T23:59:07.850Z,21.95
